sensor_id;sensor_type;location;lat;lon;timestamp;pressure;altitude;pressure_sealevel;temperature;humidity
8318;BME280;4196;48.926;8.964;2022-10-16T00:01:43;98892.75;;;13.31;100.00
8318;BME280;4196;48.926;8.964;2022-10-16T00:04:30;98909.75;;;13.50;100.00
8318;BME280;4196;48.926;8.964;2022-10-16T00:07:16;98904.66;;;13.44;100.00
8318;BME280;4196;48.926;8.964;2022-10-16T00:10:02;98883.16;;;13.33;100.00
8318;BME280;4196;48.926;8.964;2022-10-16T00:12:49;98881.50;;;13.28;100.00
8318;BME280;4196;48.926;8.964;2022-10-16T00:15:36;98882.34;;;13.29;100.00
8318;BME280;4196;48.926;8.964;2022-10-16T00:18:23;98884.72;;;13.43;100.00
8318;BME280;4196;48.926;8.964;2022-10-16T00:21:19;98888.22;;;13.42;100.00
8318;BME280;4196;48.926;8.964;2022-10-16T00:24:07;98894.25;;;13.44;100.00
8318;BME280;4196;48.926;8.964;2022-10-16T00:26:57;98900.25;;;13.49;100.00
8318;BME280;4196;48.926;8.964;2022-10-16T00:29:43;98878.00;;;13.31;100.00
8318;BME280;4196;48.926;8.964;2022-10-16T00:32:30;98878.84;;;13.32;100.00
8318;BME280;4196;48.926;8.964;2022-10-16T00:35:16;98918.44;;;13.49;100.00
8318;BME280;4196;48.926;8.964;2022-10-16T00:38:02;98910.59;;;13.52;100.00
8318;BME280;4196;48.926;8.964;2022-10-16T00:40:50;98883.97;;;13.38;100.00
8318;BME280;4196;48.926;8.964;2022-10-16T00:46:38;98894.16;;;13.50;100.00
8318;BME280;4196;48.926;8.964;2022-10-16T00:49:25;98898.41;;;13.56;100.00
8318;BME280;4196;48.926;8.964;2022-10-16T00:52:11;98893.25;;;13.52;100.00
8318;BME280;4196;48.926;8.964;2022-10-16T00:55:00;98912.03;;;13.68;100.00
8318;BME280;4196;48.926;8.964;2022-10-16T00:57:48;98891.50;;;13.53;100.00
8318;BME280;4196;48.926;8.964;2022-10-16T01:00:35;98887.94;;;13.59;100.00
8318;BME280;4196;48.926;8.964;2022-10-16T01:06:27;98920.44;;;13.84;100.00
8318;BME280;4196;48.926;8.964;2022-10-16T01:18:46;98925.53;;;13.92;100.00
8318;BME280;4196;48.926;8.964;2022-10-16T01:21:39;98909.19;;;13.82;100.00
8318;BME280;4196;48.926;8.964;2022-10-16T01:24:48;98929.94;;;13.87;100.00
8318;BME280;4196;48.926;8.964;2022-10-16T01:27:36;98938.63;;;13.86;100.00
8318;BME280;4196;48.926;8.964;2022-10-16T01:30:30;98929.13;;;13.85;100.00
8318;BME280;4196;48.926;8.964;2022-10-16T01:33:21;98897.16;;;13.76;100.00
8318;BME280;4196;48.926;8.964;2022-10-16T01:36:18;98898.75;;;13.85;100.00
8318;BME280;4196;48.926;8.964;2022-10-16T01:39:10;98895.25;;;13.86;100.00
8318;BME280;4196;48.926;8.964;2022-10-16T01:42:19;98920.09;;;14.02;100.00
8318;BME280;4196;48.926;8.964;2022-10-16T01:45:08;98880.53;;;13.84;100.00
8318;BME280;4196;48.926;8.964;2022-10-16T01:47:58;98918.28;;;14.08;100.00
8318;BME280;4196;48.926;8.964;2022-10-16T01:50:54;98908.72;;;14.08;100.00
8318;BME280;4196;48.926;8.964;2022-10-16T01:53:45;98909.63;;;14.06;100.00
8318;BME280;4196;48.926;8.964;2022-10-16T01:56:34;98917.47;;;14.04;100.00
8318;BME280;4196;48.926;8.964;2022-10-16T01:59:25;98914.88;;;14.02;100.00
8318;BME280;4196;48.926;8.964;2022-10-16T02:02:13;98904.41;;;14.07;100.00
8318;BME280;4196;48.926;8.964;2022-10-16T02:05:14;98916.47;;;14.10;100.00
8318;BME280;4196;48.926;8.964;2022-10-16T02:08:03;98896.66;;;14.04;100.00
8318;BME280;4196;48.926;8.964;2022-10-16T02:10:51;98908.59;;;14.14;100.00
8318;BME280;4196;48.926;8.964;2022-10-16T02:13:40;98915.47;;;14.18;100.00
8318;BME280;4196;48.926;8.964;2022-10-16T02:16:40;98913.81;;;14.13;100.00
8318;BME280;4196;48.926;8.964;2022-10-16T02:19:30;98888.03;;;13.99;100.00
8318;BME280;4196;48.926;8.964;2022-10-16T02:22:23;98876.94;;;13.91;100.00
8318;BME280;4196;48.926;8.964;2022-10-16T02:25:18;98913.00;;;14.11;100.00
8318;BME280;4196;48.926;8.964;2022-10-16T02:31:02;98916.47;;;14.11;100.00
8318;BME280;4196;48.926;8.964;2022-10-16T02:33:51;98908.81;;;14.02;100.00
8318;BME280;4196;48.926;8.964;2022-10-16T02:36:40;98919.19;;;14.05;100.00
8318;BME280;4196;48.926;8.964;2022-10-16T02:39:28;98926.13;;;14.05;100.00
8318;BME280;4196;48.926;8.964;2022-10-16T02:42:17;98923.53;;;14.05;100.00
8318;BME280;4196;48.926;8.964;2022-10-16T02:45:04;98914.03;;;14.02;100.00
8318;BME280;4196;48.926;8.964;2022-10-16T02:47:51;98921.88;;;13.99;100.00
8318;BME280;4196;48.926;8.964;2022-10-16T02:50:37;98928.84;;;14.00;100.00
8318;BME280;4196;48.926;8.964;2022-10-16T02:53:24;98935.81;;;13.98;100.00
8318;BME280;4196;48.926;8.964;2022-10-16T02:56:10;98929.84;;;13.93;100.00
8318;BME280;4196;48.926;8.964;2022-10-16T02:58:57;98930.78;;;13.89;100.00
8318;BME280;4196;48.926;8.964;2022-10-16T03:01:44;98898.75;;;13.84;100.00
8318;BME280;4196;48.926;8.964;2022-10-16T03:04:30;98921.13;;;13.94;100.00
8318;BME280;4196;48.926;8.964;2022-10-16T03:07:17;98929.69;;;13.99;100.00
8318;BME280;4196;48.926;8.964;2022-10-16T03:10:03;98921.19;;;13.91;100.00
8318;BME280;4196;48.926;8.964;2022-10-16T03:12:50;98907.50;;;13.80;100.00
8318;BME280;4196;48.926;8.964;2022-10-16T03:15:37;98922.22;;;13.82;100.00
8318;BME280;4196;48.926;8.964;2022-10-16T03:18:23;98902.56;;;13.64;100.00
8318;BME280;4196;48.926;8.964;2022-10-16T03:21:09;98914.69;;;13.65;100.00
8318;BME280;4196;48.926;8.964;2022-10-16T03:23:56;98942.22;;;13.78;100.00
8318;BME280;4196;48.926;8.964;2022-10-16T03:26:42;98930.13;;;13.77;100.00
8318;BME280;4196;48.926;8.964;2022-10-16T03:29:28;98934.44;;;13.77;100.00
8318;BME280;4196;48.926;8.964;2022-10-16T03:32:15;98928.56;;;13.66;100.00
8318;BME280;4196;48.926;8.964;2022-10-16T03:35:01;98930.44;;;13.59;100.00
8318;BME280;4196;48.926;8.964;2022-10-16T03:37:49;98907.28;;;13.42;100.00
8318;BME280;4196;48.926;8.964;2022-10-16T03:40:35;98911.69;;;13.39;100.00
8318;BME280;4196;48.926;8.964;2022-10-16T03:43:21;98906.56;;;13.33;100.00
8318;BME280;4196;48.926;8.964;2022-10-16T03:46:08;98937.47;;;13.52;100.00
8318;BME280;4196;48.926;8.964;2022-10-16T03:48:54;98922.97;;;13.38;100.00
8318;BME280;4196;48.926;8.964;2022-10-16T03:51:40;98928.13;;;13.41;100.00
8318;BME280;4196;48.926;8.964;2022-10-16T03:54:26;98941.00;;;13.47;100.00
8318;BME280;4196;48.926;8.964;2022-10-16T03:57:13;98843.88;;;12.97;100.00
8318;BME280;4196;48.926;8.964;2022-10-16T03:59:59;98916.16;;;13.29;100.00
8318;BME280;4196;48.926;8.964;2022-10-16T04:02:45;98914.44;;;13.28;100.00
8318;BME280;4196;48.926;8.964;2022-10-16T04:05:37;98939.41;;;13.40;100.00
8318;BME280;4196;48.926;8.964;2022-10-16T04:08:23;98905.03;;;13.18;100.00
8318;BME280;4196;48.926;8.964;2022-10-16T04:11:09;98912.78;;;13.22;100.00
8318;BME280;4196;48.926;8.964;2022-10-16T04:13:55;98930.88;;;13.32;100.00
8318;BME280;4196;48.926;8.964;2022-10-16T04:16:42;98927.44;;;13.29;100.00
8318;BME280;4196;48.926;8.964;2022-10-16T04:19:28;98925.72;;;13.28;100.00
8318;BME280;4196;48.926;8.964;2022-10-16T04:22:15;98893.94;;;13.06;100.00
8318;BME280;4196;48.926;8.964;2022-10-16T04:25:01;98933.50;;;13.30;100.00
8318;BME280;4196;48.926;8.964;2022-10-16T04:27:48;98937.78;;;13.33;100.00
8318;BME280;4196;48.926;8.964;2022-10-16T04:30:34;98946.47;;;13.32;100.00
8318;BME280;4196;48.926;8.964;2022-10-16T04:33:20;98946.44;;;13.35;100.00
8318;BME280;4196;48.926;8.964;2022-10-16T04:36:08;98938.78;;;13.24;100.00
8318;BME280;4196;48.926;8.964;2022-10-16T04:38:54;98932.75;;;13.20;100.00
8318;BME280;4196;48.926;8.964;2022-10-16T04:41:41;98955.97;;;13.34;100.00
8318;BME280;4196;48.926;8.964;2022-10-16T04:44:27;98967.19;;;13.38;100.00
8318;BME280;4196;48.926;8.964;2022-10-16T04:47:13;98968.09;;;13.35;100.00
8318;BME280;4196;48.926;8.964;2022-10-16T04:50:00;98974.94;;;13.39;100.00
8318;BME280;4196;48.926;8.964;2022-10-16T04:52:48;98970.75;;;13.31;100.00
8318;BME280;4196;48.926;8.964;2022-10-16T04:55:35;98975.97;;;13.29;100.00
8318;BME280;4196;48.926;8.964;2022-10-16T04:58:21;98970.00;;;13.21;100.00
8318;BME280;4196;48.926;8.964;2022-10-16T05:01:07;98964.94;;;13.10;100.00
8318;BME280;4196;48.926;8.964;2022-10-16T05:03:53;98952.09;;;13.01;100.00
8318;BME280;4196;48.926;8.964;2022-10-16T05:06:39;98973.59;;;13.11;100.00
8318;BME280;4196;48.926;8.964;2022-10-16T05:09:26;98989.97;;;13.19;100.00
8318;BME280;4196;48.926;8.964;2022-10-16T05:12:12;98982.22;;;13.16;100.00
8318;BME280;4196;48.926;8.964;2022-10-16T05:14:58;98988.28;;;13.16;100.00
8318;BME280;4196;48.926;8.964;2022-10-16T05:17:44;98974.38;;;13.17;100.00
8318;BME280;4196;48.926;8.964;2022-10-16T05:20:31;98965.03;;;13.05;100.00
8318;BME280;4196;48.926;8.964;2022-10-16T05:23:18;98991.78;;;13.12;100.00
8318;BME280;4196;48.926;8.964;2022-10-16T05:26:04;98985.63;;;13.19;100.00
8318;BME280;4196;48.926;8.964;2022-10-16T05:28:51;98984.06;;;13.08;100.00
8318;BME280;4196;48.926;8.964;2022-10-16T05:31:37;98986.50;;;13.20;100.00
8318;BME280;4196;48.926;8.964;2022-10-16T05:34:24;98993.53;;;13.12;100.00
8318;BME280;4196;48.926;8.964;2022-10-16T05:37:11;98983.22;;;13.07;100.00
8318;BME280;4196;48.926;8.964;2022-10-16T05:39:57;98962.69;;;12.89;100.00
8318;BME280;4196;48.926;8.964;2022-10-16T05:42:44;98985.03;;;12.99;100.00
8318;BME280;4196;48.926;8.964;2022-10-16T05:45:30;98987.63;;;12.99;100.00
8318;BME280;4196;48.926;8.964;2022-10-16T05:48:17;98997.22;;;12.97;100.00
8318;BME280;4196;48.926;8.964;2022-10-16T05:51:06;98971.31;;;12.88;100.00
8318;BME280;4196;48.926;8.964;2022-10-16T05:53:53;99000.63;;;12.99;100.00
8318;BME280;4196;48.926;8.964;2022-10-16T05:56:39;99009.28;;;13.01;100.00
8318;BME280;4196;48.926;8.964;2022-10-16T05:59:25;99009.28;;;13.01;100.00
8318;BME280;4196;48.926;8.964;2022-10-16T06:02:15;98992.97;;;12.88;100.00
8318;BME280;4196;48.926;8.964;2022-10-16T06:05:02;98986.88;;;12.91;100.00
8318;BME280;4196;48.926;8.964;2022-10-16T06:07:48;98995.47;;;12.96;100.00
8318;BME280;4196;48.926;8.964;2022-10-16T06:10:35;99002.31;;;13.03;100.00
8318;BME280;4196;48.926;8.964;2022-10-16T06:13:21;99011.81;;;13.07;100.00
8318;BME280;4196;48.926;8.964;2022-10-16T06:16:09;99016.88;;;13.16;100.00
8318;BME280;4196;48.926;8.964;2022-10-16T06:18:56;98992.66;;;13.13;100.00
8318;BME280;4196;48.926;8.964;2022-10-16T06:21:43;99004.66;;;13.21;100.00
8318;BME280;4196;48.926;8.964;2022-10-16T06:24:29;98990.19;;;13.02;100.00
8318;BME280;4196;48.926;8.964;2022-10-16T06:27:15;98991.91;;;13.03;100.00
8318;BME280;4196;48.926;8.964;2022-10-16T06:30:02;99010.00;;;13.11;100.00
8318;BME280;4196;48.926;8.964;2022-10-16T06:32:49;99020.31;;;13.18;100.00
8318;BME280;4196;48.926;8.964;2022-10-16T06:35:36;99026.34;;;13.23;100.00
8318;BME280;4196;48.926;8.964;2022-10-16T06:38:22;99025.44;;;13.26;100.00
8318;BME280;4196;48.926;8.964;2022-10-16T06:41:11;99041.72;;;13.39;100.00
8318;BME280;4196;48.926;8.964;2022-10-16T06:43:58;99046.75;;;13.49;100.00
8318;BME280;4196;48.926;8.964;2022-10-16T06:46:44;99039.81;;;13.51;100.00
8318;BME280;4196;48.926;8.964;2022-10-16T06:49:31;99045.78;;;13.57;100.00
8318;BME280;4196;48.926;8.964;2022-10-16T06:52:17;99044.94;;;13.56;100.00
8318;BME280;4196;48.926;8.964;2022-10-16T06:55:04;99058.44;;;13.80;100.00
8318;BME280;4196;48.926;8.964;2022-10-16T06:57:51;99046.41;;;13.72;100.00
8318;BME280;4196;48.926;8.964;2022-10-16T07:00:38;99035.19;;;13.69;100.00
8318;BME280;4196;48.926;8.964;2022-10-16T07:03:24;99066.28;;;13.78;100.00
8318;BME280;4196;48.926;8.964;2022-10-16T07:06:13;99056.88;;;13.69;100.00
8318;BME280;4196;48.926;8.964;2022-10-16T07:09:02;99081.63;;;13.96;100.00
8318;BME280;4196;48.926;8.964;2022-10-16T07:11:49;99086.56;;;14.12;100.00
8318;BME280;4196;48.926;8.964;2022-10-16T07:14:35;99084.88;;;14.11;100.00
8318;BME280;4196;48.926;8.964;2022-10-16T07:17:22;99071.91;;;14.06;100.00
8318;BME280;4196;48.926;8.964;2022-10-16T07:20:09;99087.53;;;14.06;100.00
8318;BME280;4196;48.926;8.964;2022-10-16T07:22:55;99090.13;;;14.08;100.00
8318;BME280;4196;48.926;8.964;2022-10-16T07:25:42;99096.19;;;14.08;100.00
8318;BME280;4196;48.926;8.964;2022-10-16T07:28:28;99088.31;;;14.10;100.00
8318;BME280;4196;48.926;8.964;2022-10-16T07:31:16;99070.28;;;13.99;100.00
8318;BME280;4196;48.926;8.964;2022-10-16T07:34:03;99070.13;;;14.08;100.00
8318;BME280;4196;48.926;8.964;2022-10-16T07:36:50;99059.88;;;13.99;100.00
8318;BME280;4196;48.926;8.964;2022-10-16T07:39:36;99089.00;;;14.22;100.00
8318;BME280;4196;48.926;8.964;2022-10-16T07:42:23;99075.19;;;14.17;100.00
8318;BME280;4196;48.926;8.964;2022-10-16T07:45:09;99106.78;;;14.50;100.00
8318;BME280;4196;48.926;8.964;2022-10-16T07:47:56;99098.72;;;14.64;100.00
8318;BME280;4196;48.926;8.964;2022-10-16T07:50:43;99078.63;;;14.69;100.00
8318;BME280;4196;48.926;8.964;2022-10-16T07:53:29;99107.38;;;15.09;100.00
8318;BME280;4196;48.926;8.964;2022-10-16T07:56:17;99121.47;;;15.44;100.00
8318;BME280;4196;48.926;8.964;2022-10-16T07:59:04;99110.69;;;15.59;100.00
8318;BME280;4196;48.926;8.964;2022-10-16T08:01:50;99119.34;;;15.61;100.00
8318;BME280;4196;48.926;8.964;2022-10-16T08:04:36;99094.06;;;15.63;100.00
8318;BME280;4196;48.926;8.964;2022-10-16T08:07:22;99096.16;;;15.88;100.00
8318;BME280;4196;48.926;8.964;2022-10-16T08:10:16;99127.50;;;16.24;100.00
8318;BME280;4196;48.926;8.964;2022-10-16T08:13:02;99071.16;;;16.13;100.00
8318;BME280;4196;48.926;8.964;2022-10-16T08:15:49;99110.16;;;16.55;100.00
8318;BME280;4196;48.926;8.964;2022-10-16T08:18:39;99128.09;;;16.69;100.00
8318;BME280;4196;48.926;8.964;2022-10-16T08:21:26;99114.19;;;16.67;100.00
8318;BME280;4196;48.926;8.964;2022-10-16T08:24:12;99133.66;;;16.91;100.00
8318;BME280;4196;48.926;8.964;2022-10-16T08:26:59;99129.63;;;17.10;100.00
8318;BME280;4196;48.926;8.964;2022-10-16T08:29:45;99113.75;;;17.17;100.00
8318;BME280;4196;48.926;8.964;2022-10-16T08:32:31;99143.84;;;17.31;100.00
8318;BME280;4196;48.926;8.964;2022-10-16T08:35:18;99118.22;;;17.13;100.00
8318;BME280;4196;48.926;8.964;2022-10-16T08:38:05;99116.38;;;17.17;100.00
8318;BME280;4196;48.926;8.964;2022-10-16T08:40:57;99136.69;;;17.38;100.00
8318;BME280;4196;48.926;8.964;2022-10-16T08:44:11;99142.03;;;17.33;100.00
8318;BME280;4196;48.926;8.964;2022-10-16T08:49:57;99142.78;;;17.38;100.00
8318;BME280;4196;48.926;8.964;2022-10-16T08:52:44;99130.25;;;17.48;100.00
8318;BME280;4196;48.926;8.964;2022-10-16T08:55:37;99124.94;;;17.51;100.00
8318;BME280;4196;48.926;8.964;2022-10-16T08:58:29;99134.66;;;17.77;100.00
8318;BME280;4196;48.926;8.964;2022-10-16T09:01:17;99140.16;;;17.98;100.00
8318;BME280;4196;48.926;8.964;2022-10-16T09:04:43;99144.56;;;17.96;100.00
8318;BME280;4196;48.926;8.964;2022-10-16T09:07:49;99140.31;;;17.93;100.00
8318;BME280;4196;48.926;8.964;2022-10-16T09:10:52;99156.22;;;18.14;100.00
8318;BME280;4196;48.926;8.964;2022-10-16T09:17:18;99135.31;;;18.12;100.00
8318;BME280;4196;48.926;8.964;2022-10-16T09:25:50;99178.31;;;18.33;100.00
8318;BME280;4196;48.926;8.964;2022-10-16T09:28:37;99181.34;;;18.47;100.00
8318;BME280;4196;48.926;8.964;2022-10-16T09:31:23;99159.69;;;18.42;100.00
8318;BME280;4196;48.926;8.964;2022-10-16T09:34:24;99166.13;;;18.58;100.00
8318;BME280;4196;48.926;8.964;2022-10-16T09:37:18;99173.78;;;18.65;100.00
8318;BME280;4196;48.926;8.964;2022-10-16T09:40:05;99184.28;;;18.91;100.00
8318;BME280;4196;48.926;8.964;2022-10-16T09:43:12;99161.00;;;18.82;100.00
8318;BME280;4196;48.926;8.964;2022-10-16T09:46:04;99187.22;;;19.07;100.00
8318;BME280;4196;48.926;8.964;2022-10-16T09:48:51;99203.94;;;19.04;100.00
8318;BME280;4196;48.926;8.964;2022-10-16T09:51:39;99182.25;;;18.99;100.00
8318;BME280;4196;48.926;8.964;2022-10-16T09:54:26;99208.38;;;19.27;100.00
8318;BME280;4196;48.926;8.964;2022-10-16T09:57:13;99193.13;;;19.14;100.00
8318;BME280;4196;48.926;8.964;2022-10-16T09:59:59;99195.81;;;19.12;100.00
8318;BME280;4196;48.926;8.964;2022-10-16T10:02:52;99194.44;;;19.25;100.00
8318;BME280;4196;48.926;8.964;2022-10-16T10:05:48;99182.88;;;19.54;100.00
8318;BME280;4196;48.926;8.964;2022-10-16T10:08:34;99211.13;;;19.73;100.00
8318;BME280;4196;48.926;8.964;2022-10-16T10:17:20;99206.34;;;20.06;100.00
8318;BME280;4196;48.926;8.964;2022-10-16T10:23:23;99223.81;;;19.85;100.00
8318;BME280;4196;48.926;8.964;2022-10-16T10:26:18;99226.28;;;20.12;100.00
8318;BME280;4196;48.926;8.964;2022-10-16T10:32:43;99202.75;;;20.09;100.00
8318;BME280;4196;48.926;8.964;2022-10-16T10:35:44;99220.53;;;20.24;100.00
8318;BME280;4196;48.926;8.964;2022-10-16T10:44:37;99227.06;;;20.59;100.00
8318;BME280;4196;48.926;8.964;2022-10-16T10:53:52;99186.75;;;20.79;100.00
8318;BME280;4196;48.926;8.964;2022-10-16T10:56:51;99221.59;;;21.06;100.00
8318;BME280;4196;48.926;8.964;2022-10-16T10:59:58;99219.53;;;20.92;99.30
8318;BME280;4196;48.926;8.964;2022-10-16T11:03:05;99209.78;;;20.94;94.47
8318;BME280;4196;48.926;8.964;2022-10-16T11:06:04;99197.16;;;20.82;91.87
8318;BME280;4196;48.926;8.964;2022-10-16T11:08:53;99200.97;;;20.75;96.04
8318;BME280;4196;48.926;8.964;2022-10-16T11:14:57;99191.69;;;20.44;96.77
8318;BME280;4196;48.926;8.964;2022-10-16T11:17:55;99208.09;;;20.29;93.02
8318;BME280;4196;48.926;8.964;2022-10-16T11:20:57;99187.16;;;20.26;95.39
8318;BME280;4196;48.926;8.964;2022-10-16T11:24:15;99212.34;;;20.32;100.00
8318;BME280;4196;48.926;8.964;2022-10-16T11:27:09;99219.03;;;20.40;100.00
8318;BME280;4196;48.926;8.964;2022-10-16T11:30:00;99197.06;;;20.41;100.00
8318;BME280;4196;48.926;8.964;2022-10-16T11:33:03;99194.13;;;20.71;100.00
8318;BME280;4196;48.926;8.964;2022-10-16T11:36:00;99199.66;;;20.85;100.00
8318;BME280;4196;48.926;8.964;2022-10-16T11:39:04;99218.72;;;21.31;98.59
8318;BME280;4196;48.926;8.964;2022-10-16T11:42:18;99212.63;;;21.31;96.49
8318;BME280;4196;48.926;8.964;2022-10-16T11:51:25;99211.78;;;21.51;88.34
8318;BME280;4196;48.926;8.964;2022-10-16T11:54:22;99171.59;;;21.64;83.66
8318;BME280;4196;48.926;8.964;2022-10-16T11:57:21;99172.66;;;21.60;83.83
8318;BME280;4196;48.926;8.964;2022-10-16T12:00:28;99171.88;;;21.39;83.25
8318;BME280;4196;48.926;8.964;2022-10-16T12:09:28;99203.47;;;20.98;85.87
8318;BME280;4196;48.926;8.964;2022-10-16T12:12:39;99195.06;;;20.90;87.93
8318;BME280;4196;48.926;8.964;2022-10-16T12:15:31;99186.25;;;20.91;86.08
8318;BME280;4196;48.926;8.964;2022-10-16T12:18:40;99196.63;;;21.15;84.59
8318;BME280;4196;48.926;8.964;2022-10-16T12:21:30;99209.13;;;21.30;85.59
8318;BME280;4196;48.926;8.964;2022-10-16T12:24:37;99198.88;;;21.44;85.18
8318;BME280;4196;48.926;8.964;2022-10-16T12:27:31;99192.34;;;21.33;86.89
8318;BME280;4196;48.926;8.964;2022-10-16T12:30:22;99200.19;;;21.34;86.50
8318;BME280;4196;48.926;8.964;2022-10-16T12:33:36;99194.25;;;21.29;88.73
8318;BME280;4196;48.926;8.964;2022-10-16T12:36:29;99195.72;;;21.16;88.68
8318;BME280;4196;48.926;8.964;2022-10-16T12:39:22;99158.06;;;20.93;85.61
8318;BME280;4196;48.926;8.964;2022-10-16T12:42:31;99168.44;;;21.17;86.04
8318;BME280;4196;48.926;8.964;2022-10-16T12:45:26;99137.59;;;21.00;86.61
8318;BME280;4196;48.926;8.964;2022-10-16T12:48:21;99196.03;;;21.29;88.12
8318;BME280;4196;48.926;8.964;2022-10-16T12:54:31;99188.47;;;21.21;86.43
8318;BME280;4196;48.926;8.964;2022-10-16T12:57:38;99199.25;;;21.35;89.74
8318;BME280;4196;48.926;8.964;2022-10-16T13:03:36;99205.41;;;21.36;84.79
8318;BME280;4196;48.926;8.964;2022-10-16T13:06:35;99207.47;;;21.28;83.71
8318;BME280;4196;48.926;8.964;2022-10-16T13:09:30;99213.59;;;21.28;84.84
8318;BME280;4196;48.926;8.964;2022-10-16T13:12:59;99219.19;;;21.20;91.12
8318;BME280;4196;48.926;8.964;2022-10-16T13:28:10;99213.75;;;21.25;91.61
8318;BME280;4196;48.926;8.964;2022-10-16T13:30:58;99215.53;;;21.45;90.35
8318;BME280;4196;48.926;8.964;2022-10-16T13:33:49;99206.88;;;21.62;84.89
8318;BME280;4196;48.926;8.964;2022-10-16T13:39:30;99219.72;;;21.88;81.97
8318;BME280;4196;48.926;8.964;2022-10-16T13:42:26;99225.34;;;22.00;83.76
8318;BME280;4196;48.926;8.964;2022-10-16T13:45:19;99229.47;;;21.86;81.05
8318;BME280;4196;48.926;8.964;2022-10-16T13:48:09;99213.94;;;21.80;81.44
8318;BME280;4196;48.926;8.964;2022-10-16T13:51:18;99217.94;;;21.89;78.70
8318;BME280;4196;48.926;8.964;2022-10-16T13:54:04;99198.41;;;21.74;80.12
8318;BME280;4196;48.926;8.964;2022-10-16T13:56:50;99211.44;;;21.77;80.29
8318;BME280;4196;48.926;8.964;2022-10-16T13:59:54;99187.53;;;21.61;81.79
8318;BME280;4196;48.926;8.964;2022-10-16T14:02:41;99171.78;;;21.20;82.79
8318;BME280;4196;48.926;8.964;2022-10-16T14:05:27;99196.16;;;21.26;82.82
8318;BME280;4196;48.926;8.964;2022-10-16T14:08:13;99188.72;;;21.15;83.09
8318;BME280;4196;48.926;8.964;2022-10-16T14:11:01;99187.47;;;21.23;83.28
8318;BME280;4196;48.926;8.964;2022-10-16T14:13:48;99210.47;;;21.40;81.45
8318;BME280;4196;48.926;8.964;2022-10-16T14:16:34;99221.72;;;21.44;85.85
8318;BME280;4196;48.926;8.964;2022-10-16T14:19:26;99211.44;;;21.38;87.58
8318;BME280;4196;48.926;8.964;2022-10-16T14:22:35;99216.72;;;21.38;86.52
8318;BME280;4196;48.926;8.964;2022-10-16T14:25:27;99206.13;;;21.19;90.08
8318;BME280;4196;48.926;8.964;2022-10-16T14:28:22;99223.91;;;21.14;87.48
8318;BME280;4196;48.926;8.964;2022-10-16T14:31:26;99192.28;;;20.93;88.87
8318;BME280;4196;48.926;8.964;2022-10-16T14:37:29;99191.38;;;20.94;86.47
8318;BME280;4196;48.926;8.964;2022-10-16T14:40:17;99216.66;;;21.19;87.93
8318;BME280;4196;48.926;8.964;2022-10-16T14:43:05;99205.25;;;21.18;88.15
8318;BME280;4196;48.926;8.964;2022-10-16T14:45:54;99186.50;;;20.85;88.18
8318;BME280;4196;48.926;8.964;2022-10-16T14:48:42;99208.91;;;20.95;94.19
8318;BME280;4196;48.926;8.964;2022-10-16T14:51:29;99206.78;;;21.04;98.69
8318;BME280;4196;48.926;8.964;2022-10-16T14:54:18;99221.84;;;21.00;94.03
8318;BME280;4196;48.926;8.964;2022-10-16T14:57:04;99213.38;;;21.14;92.01
8318;BME280;4196;48.926;8.964;2022-10-16T14:59:51;99211.63;;;21.13;97.26
8318;BME280;4196;48.926;8.964;2022-10-16T15:02:37;99195.78;;;21.14;93.89
8318;BME280;4196;48.926;8.964;2022-10-16T15:05:26;99202.03;;;21.32;91.02
8318;BME280;4196;48.926;8.964;2022-10-16T15:08:12;99195.84;;;21.13;94.81
8318;BME280;4196;48.926;8.964;2022-10-16T15:10:58;99212.56;;;21.12;100.00
8318;BME280;4196;48.926;8.964;2022-10-16T15:13:46;99205.69;;;20.87;100.00
8318;BME280;4196;48.926;8.964;2022-10-16T15:16:32;99215.19;;;20.71;100.00
8318;BME280;4196;48.926;8.964;2022-10-16T15:19:18;99205.63;;;20.46;100.00
8318;BME280;4196;48.926;8.964;2022-10-16T15:22:05;99228.63;;;20.41;100.00
8318;BME280;4196;48.926;8.964;2022-10-16T15:24:51;99227.28;;;20.31;100.00
8318;BME280;4196;48.926;8.964;2022-10-16T15:27:38;99185.72;;;19.95;100.00
8318;BME280;4196;48.926;8.964;2022-10-16T15:30:26;99225.66;;;20.05;100.00
8318;BME280;4196;48.926;8.964;2022-10-16T15:33:18;99214.78;;;19.92;100.00
8318;BME280;4196;48.926;8.964;2022-10-16T15:36:05;99207.19;;;19.85;100.00
8318;BME280;4196;48.926;8.964;2022-10-16T15:38:52;99215.00;;;19.86;100.00
8318;BME280;4196;48.926;8.964;2022-10-16T15:41:39;99197.66;;;19.82;100.00
8318;BME280;4196;48.926;8.964;2022-10-16T15:44:26;99216.38;;;19.96;100.00
8318;BME280;4196;48.926;8.964;2022-10-16T15:47:16;99204.72;;;19.80;100.00
8318;BME280;4196;48.926;8.964;2022-10-16T15:50:03;99228.25;;;19.83;100.00
8318;BME280;4196;48.926;8.964;2022-10-16T15:52:51;99226.78;;;19.76;100.00
8318;BME280;4196;48.926;8.964;2022-10-16T15:55:37;99208.09;;;19.59;100.00
8318;BME280;4196;48.926;8.964;2022-10-16T15:58:24;99216.34;;;19.49;100.00
8318;BME280;4196;48.926;8.964;2022-10-16T16:01:11;99208.22;;;19.32;100.00
8318;BME280;4196;48.926;8.964;2022-10-16T16:03:58;99230.94;;;19.33;100.00
8318;BME280;4196;48.926;8.964;2022-10-16T16:06:44;99212.84;;;19.00;100.00
8318;BME280;4196;48.926;8.964;2022-10-16T16:09:31;99232.00;;;19.02;100.00
8318;BME280;4196;48.926;8.964;2022-10-16T16:12:17;99224.81;;;18.82;100.00
8318;BME280;4196;48.926;8.964;2022-10-16T16:15:05;99229.56;;;18.70;100.00
8318;BME280;4196;48.926;8.964;2022-10-16T16:17:52;99206.72;;;18.47;100.00
8318;BME280;4196;48.926;8.964;2022-10-16T16:20:39;99208.78;;;18.37;100.00
8318;BME280;4196;48.926;8.964;2022-10-16T16:23:25;99225.50;;;18.33;100.00
8318;BME280;4196;48.926;8.964;2022-10-16T16:26:14;99231.75;;;18.29;100.00
8318;BME280;4196;48.926;8.964;2022-10-16T16:29:00;99231.09;;;18.22;100.00
8318;BME280;4196;48.926;8.964;2022-10-16T16:31:47;99204.97;;;17.91;100.00
8318;BME280;4196;48.926;8.964;2022-10-16T16:34:33;99239.47;;;18.05;100.00
8318;BME280;4196;48.926;8.964;2022-10-16T16:37:20;99243.88;;;18.03;100.00
8318;BME280;4196;48.926;8.964;2022-10-16T16:40:06;99232.16;;;17.87;100.00
8318;BME280;4196;48.926;8.964;2022-10-16T16:42:53;99249.59;;;17.88;100.00
8318;BME280;4196;48.926;8.964;2022-10-16T16:45:39;99225.88;;;17.61;100.00
8318;BME280;4196;48.926;8.964;2022-10-16T16:48:25;99223.72;;;17.46;100.00
8318;BME280;4196;48.926;8.964;2022-10-16T16:51:14;99249.88;;;17.46;100.00